San Antonio, Texas
Traffic Map
Current Weather Conditions
San Antonio, Texas
Overcast
Overcast
21°
Feels Like: 21°
Wind Chill: 21° Ceiling: 1100
Heat Index: 21° Visibility: 10mi
Dew Point: 18° Wind: 10mph
Humidity: 82% Direction: 180° (S)
Pressure: 30.05in Gusts: 0mph
Raw Report DataKSKF 211458Z AUTO 18009KT 10SM OVC011 21/18 A3005 RMK AO2 SLP171 T02090178 52008 $
Traffic Incident Summary
Active as of:
Severity:
Category:
InformationThere was an issue retrieving the traffic information for this location. Please try a different location or try again shortly.
Advertisements
At Last! Intellicast now available for iPhone and Android